Time;durP1;ratioP1;P1;durP2;ratioP2;P2;SDS_P1;SDS_P2;PMS_P1;PMS_P2;Temp;Humidity;BMP_temperature;BMP_pressure;BME280_temperature;BME280_humidity;BME280_pressure;Samples;Min_cycle;Max_cycle;Signal;HPM_P1;HPM_P2
2024/04/06 00:00:50;;;;;;;0.67;0.33;;;16.50;99.90;;;;;;5151296;27;20442;-63
2024/04/06 00:03:16;;;;;;;0.50;0.30;;;16.50;99.90;;;;;;5149680;27;20504;-63
2024/04/06 00:05:43;;;;;;;0.57;0.30;;;16.50;99.90;;;;;;5148163;27;20447;-63
2024/04/06 00:08:11;;;;;;;0.63;0.40;;;16.50;99.90;;;;;;5149027;27;20721;-63
2024/04/06 00:10:38;;;;;;;0.40;0.30;;;16.50;99.90;;;;;;5149564;27;20454;-63
2024/04/06 00:13:04;;;;;;;0.67;0.20;;;16.50;99.90;;;;;;5150431;27;20454;-63
2024/04/06 00:15:32;;;;;;;0.77;0.33;;;16.50;99.90;;;;;;5147962;27;20505;-65
2024/04/06 00:18:01;;;;;;;0.60;0.33;;;16.50;99.90;;;;;;5150105;27;20470;-63
2024/04/06 00:20:30;;;;;;;0.40;0.27;;;16.50;99.90;;;;;;5150176;27;21052;-64
2024/04/06 00:22:56;;;;;;;0.50;0.30;;;16.40;99.90;;;;;;5150260;27;20455;-64
2024/04/06 00:25:25;;;;;;;0.70;0.30;;;16.40;99.90;;;;;;5151229;27;20704;-63
2024/04/06 00:27:51;;;;;;;0.60;0.30;;;16.50;99.90;;;;;;5148319;27;20439;-63
2024/04/06 00:30:18;;;;;;;0.53;0.30;;;16.50;99.90;;;;;;5149705;27;20443;-64
2024/04/06 00:32:44;;;;;;;0.60;0.30;;;16.50;99.90;;;;;;5147839;27;20439;-63
2024/04/06 00:35:11;;;;;;;1.63;0.40;;;16.50;99.90;;;;;;5150547;27;20515;-63
2024/04/06 00:37:37;;;;;;;0.70;0.30;;;16.50;99.90;;;;;;5147514;27;20517;-64
2024/04/06 00:40:05;;;;;;;1.83;0.37;;;16.50;99.90;;;;;;5148616;27;20420;-63
2024/04/06 00:42:32;;;;;;;0.60;0.30;;;16.40;99.90;;;;;;5148998;27;20854;-63
2024/04/06 00:45:00;;;;;;;1.23;0.30;;;16.40;99.90;;;;;;5149010;27;20453;-63
2024/04/06 00:47:26;;;;;;;1.17;0.30;;;16.40;99.90;;;;;;5148162;27;20976;-63
2024/04/06 00:49:54;;;;;;;0.50;0.30;;;16.40;99.90;;;;;;5147352;27;20518;-64
2024/04/06 00:52:20;;;;;;;0.40;0.30;;;16.30;99.90;;;;;;5150907;27;20447;-63
2024/04/06 00:54:47;;;;;;;1.60;0.40;;;16.20;99.90;;;;;;5148047;27;20503;-63
2024/04/06 00:57:13;;;;;;;0.53;0.30;;;16.20;99.90;;;;;;5148689;27;20450;-63
2024/04/06 00:59:42;;;;;;;0.70;0.30;;;16.20;99.90;;;;;;5151326;27;20478;-64
2024/04/06 01:02:10;;;;;;;0.57;0.20;;;16.10;99.90;;;;;;5147379;27;21036;-63
2024/04/06 01:04:37;;;;;;;0.70;0.30;;;16.10;99.90;;;;;;5147695;27;20430;-63
2024/04/06 01:07:03;;;;;;;0.73;0.40;;;16.00;99.90;;;;;;5144380;27;20443;-63
2024/04/06 01:09:30;;;;;;;1.80;0.37;;;16.00;99.90;;;;;;5148642;27;20887;-64
2024/04/06 01:11:56;;;;;;;0.50;0.30;;;16.00;99.90;;;;;;5155501;27;20447;-63
2024/04/06 01:14:23;;;;;;;0.40;0.30;;;16.00;99.90;;;;;;5148026;27;20468;-63
2024/04/06 01:16:50;;;;;;;0.80;0.30;;;15.90;99.90;;;;;;5147776;27;20422;-63
2024/04/06 01:19:17;;;;;;;0.50;0.30;;;15.90;99.90;;;;;;5148294;27;20749;-63
2024/04/06 01:21:44;;;;;;;0.40;0.30;;;15.90;99.90;;;;;;5145784;27;21064;-62
2024/04/06 01:24:25;;;;;;;1.27;0.30;;;15.90;99.90;;;;;;5147226;27;20443;-63
2024/04/06 01:26:52;;;;;;;0.50;0.30;;;15.90;99.90;;;;;;5148207;27;20845;-63
2024/04/06 01:29:20;;;;;;;0.70;0.30;;;15.80;99.90;;;;;;5148766;27;20872;-62
2024/04/06 01:31:48;;;;;;;1.43;0.30;;;15.80;99.90;;;;;;5146071;27;20474;-62
2024/04/06 01:34:15;;;;;;;2.27;0.30;;;15.80;99.90;;;;;;5148385;27;20441;-63
2024/04/06 01:36:41;;;;;;;0.30;0.20;;;15.80;99.90;;;;;;5147617;27;20435;-63
2024/04/06 01:39:08;;;;;;;0.53;0.30;;;15.80;99.90;;;;;;5146885;27;20947;-63
2024/04/06 01:41:36;;;;;;;0.80;0.30;;;15.70;99.90;;;;;;5145913;27;20438;-63
2024/04/06 01:44:05;;;;;;;1.37;0.30;;;15.70;99.90;;;;;;5151527;27;20450;-63
2024/04/06 01:46:31;;;;;;;0.83;0.20;;;15.70;99.90;;;;;;5147862;27;20710;-63
2024/04/06 01:48:59;;;;;;;0.60;0.30;;;15.60;99.90;;;;;;5148684;27;20439;-62
2024/04/06 01:51:26;;;;;;;0.40;0.30;;;15.60;99.90;;;;;;5146489;27;20451;-63
2024/04/06 01:53:53;;;;;;;0.67;0.37;;;15.60;99.90;;;;;;5147429;27;20499;-63
2024/04/06 01:56:19;;;;;;;0.50;0.20;;;15.60;99.90;;;;;;5148239;27;20451;-63
2024/04/06 01:58:48;;;;;;;1.60;0.40;;;15.50;99.90;;;;;;5146060;27;20486;-62
2024/04/06 02:01:15;;;;;;;0.50;0.30;;;15.50;99.90;;;;;;5145043;27;20443;-63
2024/04/06 02:03:43;;;;;;;0.50;0.30;;;15.50;99.90;;;;;;5156901;27;20430;-63
2024/04/06 02:06:09;;;;;;;0.80;0.30;;;15.50;99.90;;;;;;5156496;27;20438;-62
2024/04/06 02:08:36;;;;;;;1.10;0.37;;;15.40;99.90;;;;;;5157030;27;20431;-63
2024/04/06 02:11:03;;;;;;;0.53;0.33;;;15.40;99.90;;;;;;5157378;27;20457;-61
2024/04/06 02:13:30;;;;;;;0.50;0.40;;;15.40;99.90;;;;;;5157805;27;20819;-63
2024/04/06 02:15:59;;;;;;;1.17;0.30;;;15.30;99.90;;;;;;5157425;27;20450;-62
2024/04/06 02:18:26;;;;;;;0.60;0.30;;;15.20;99.90;;;;;;5156196;27;20529;-63
2024/04/06 02:20:52;;;;;;;0.50;0.30;;;15.10;99.90;;;;;;5134842;27;20779;-62
2024/04/06 02:23:19;;;;;;;0.60;0.40;;;15.00;99.90;;;;;;5135619;27;20547;-63
2024/04/06 02:25:45;;;;;;;0.53;0.30;;;14.90;99.90;;;;;;5135140;27;20508;-62
2024/04/06 02:28:12;;;;;;;0.50;0.40;;;14.90;99.90;;;;;;5147744;27;20431;-62
2024/04/06 02:30:38;;;;;;;0.50;0.30;;;14.80;99.90;;;;;;5154525;27;20853;-62
2024/04/06 02:33:07;;;;;;;0.60;0.40;;;14.80;99.90;;;;;;5154336;27;20511;-62
2024/04/06 02:35:33;;;;;;;0.67;0.30;;;14.70;99.90;;;;;;5157022;27;20443;-62
2024/04/06 02:38:00;;;;;;;0.57;0.40;;;14.70;99.90;;;;;;5155148;27;20486;-63
2024/04/06 02:40:26;;;;;;;0.77;0.27;;;14.60;99.90;;;;;;5154682;27;20442;-63
2024/04/06 02:42:53;;;;;;;0.70;0.40;;;14.60;99.90;;;;;;5155114;27;20490;-62
2024/04/06 02:45:19;;;;;;;0.80;0.50;;;14.60;99.90;;;;;;5153924;27;20446;-63
2024/04/06 02:47:46;;;;;;;0.67;0.37;;;14.50;99.90;;;;;;5153978;27;20912;-62
2024/04/06 02:50:14;;;;;;;0.80;0.40;;;14.50;99.90;;;;;;5154419;27;20446;-63
2024/04/06 02:52:41;;;;;;;0.97;0.40;;;14.40;1.00;;;;;;5155819;27;20861;-63
2024/04/06 02:55:07;;;;;;;0.53;0.30;;;14.40;1.00;;;;;;5156391;27;20450;-63
2024/04/06 02:57:34;;;;;;;0.40;0.30;;;14.40;1.40;;;;;;5156301;27;20507;-63
2024/04/06 03:00:01;;;;;;;0.90;0.40;;;14.40;99.90;;;;;;5156263;27;20528;-62
2024/04/06 03:02:28;;;;;;;0.80;0.30;;;14.40;1.00;;;;;;5156003;27;20443;-63
2024/04/06 03:04:53;;;;;;;0.60;0.30;;;14.50;99.90;;;;;;5156092;27;20458;-62
2024/04/06 03:07:22;;;;;;;0.70;0.40;;;14.60;99.90;;;;;;5156408;27;20769;-63
2024/04/06 03:09:48;;;;;;;2.43;0.37;;;14.70;99.90;;;;;;5155575;27;20499;-62
2024/04/06 03:12:16;;;;;;;0.93;0.40;;;14.80;99.90;;;;;;5156582;27;20431;-63
2024/04/06 03:14:42;;;;;;;0.60;0.40;;;14.90;99.90;;;;;;5157190;27;20495;-62
2024/04/06 03:17:09;;;;;;;1.27;0.40;;;14.90;99.90;;;;;;5158688;27;20450;-63
2024/04/06 03:19:35;;;;;;;0.63;0.40;;;14.90;99.90;;;;;;5160904;27;20482;-62
2024/04/06 03:22:02;;;;;;;0.70;0.40;;;14.90;99.90;;;;;;5161229;27;20519;-63
2024/04/06 03:24:29;;;;;;;2.30;0.33;;;14.80;99.90;;;;;;5160797;27;20471;-62
2024/04/06 03:26:56;;;;;;;0.40;0.30;;;14.80;99.90;;;;;;5161235;27;20450;-62
2024/04/06 03:29:22;;;;;;;0.50;0.30;;;14.70;99.90;;;;;;5160399;27;20784;-62
2024/04/06 03:31:49;;;;;;;0.60;0.40;;;14.70;99.90;;;;;;5159677;27;20852;-63
2024/04/06 03:34:16;;;;;;;4.00;0.30;;;14.80;99.90;;;;;;5160284;27;20446;-63
2024/04/06 03:36:43;;;;;;;0.60;0.30;;;14.70;99.90;;;;;;5160454;27;21058;-62
2024/04/06 03:39:10;;;;;;;0.70;0.40;;;14.70;99.90;;;;;;5160263;27;20474;-62
2024/04/06 03:41:38;;;;;;;0.50;0.20;;;14.70;99.90;;;;;;5160301;27;20503;-62
2024/04/06 03:44:05;;;;;;;1.20;0.40;;;14.80;99.90;;;;;;5160526;27;20442;-62
2024/04/06 03:46:31;;;;;;;0.50;0.30;;;14.80;99.90;;;;;;5160543;27;20451;-62
2024/04/06 03:48:58;;;;;;;1.00;0.30;;;14.80;99.90;;;;;;5160241;27;20744;-62
2024/04/06 03:51:25;;;;;;;0.40;0.20;;;14.80;99.90;;;;;;5160016;27;20439;-63
2024/04/06 03:53:52;;;;;;;0.60;0.40;;;14.80;99.90;;;;;;5160508;27;20446;-62
2024/04/06 03:56:18;;;;;;;0.60;0.30;;;14.80;99.90;;;;;;5159403;27;21089;-62
2024/04/06 03:58:46;;;;;;;4.63;0.40;;;14.70;99.90;;;;;;5159421;27;21050;-62
2024/04/06 04:01:12;;;;;;;0.43;0.20;;;14.70;99.90;;;;;;5159648;27;20499;-63
2024/04/06 04:03:39;;;;;;;1.20;0.30;;;14.70;99.90;;;;;;5160238;27;20447;-63
2024/04/06 04:06:06;;;;;;;1.07;0.40;;;14.70;99.90;;;;;;5160036;27;20840;-62
2024/04/06 04:08:33;;;;;;;0.60;0.30;;;14.70;99.90;;;;;;5160211;27;20435;-62
2024/04/06 04:11:00;;;;;;;0.53;0.30;;;14.70;99.90;;;;;;5149543;27;20896;-62
2024/04/06 04:13:26;;;;;;;0.60;0.30;;;14.70;99.90;;;;;;5153719;27;20439;-63
2024/04/06 04:15:54;;;;;;;0.60;0.30;;;14.70;99.90;;;;;;5159989;27;20451;-62
2024/04/06 04:18:20;;;;;;;2.40;0.30;;;14.70;99.90;;;;;;5159970;27;20941;-63
2024/04/06 04:20:47;;;;;;;0.60;0.40;;;14.70;99.90;;;;;;5158635;27;20454;-62
2024/04/06 04:23:13;;;;;;;0.50;0.40;;;14.70;99.90;;;;;;5159446;27;20852;-63
2024/04/06 04:25:40;;;;;;;0.50;0.30;;;14.70;99.90;;;;;;5158871;27;20481;-64
2024/04/06 04:28:06;;;;;;;0.60;0.40;;;14.70;99.90;;;;;;5159065;27;20510;-62
2024/04/06 04:30:33;;;;;;;0.60;0.27;;;14.70;99.90;;;;;;5159019;27;20919;-62
2024/04/06 04:33:01;;;;;;;0.50;0.30;;;14.60;99.90;;;;;;5158209;27;20862;-62
2024/04/06 04:35:28;;;;;;;0.80;0.30;;;14.60;99.90;;;;;;5159112;27;20538;-63
2024/04/06 04:37:54;;;;;;;1.70;0.30;;;14.60;99.90;;;;;;5158714;27;20458;-63
2024/04/06 04:40:21;;;;;;;0.67;0.40;;;14.60;99.90;;;;;;5158830;27;20474;-64
2024/04/06 04:42:47;;;;;;;0.57;0.20;;;14.60;99.90;;;;;;5158980;27;20442;-63
2024/04/06 04:45:15;;;;;;;0.40;0.30;;;14.60;99.90;;;;;;5159630;27;20555;-63
2024/04/06 04:47:41;;;;;;;0.63;0.40;;;14.70;99.90;;;;;;5159585;27;20451;-62
2024/04/06 04:50:10;;;;;;;0.47;0.20;;;14.60;99.90;;;;;;5158251;27;20495;-62
2024/04/06 04:52:37;;;;;;;0.50;0.30;;;14.60;99.90;;;;;;5159257;27;20450;-63
2024/04/06 04:55:04;;;;;;;0.50;0.30;;;14.60;99.90;;;;;;5159115;27;20940;-63
2024/04/06 04:57:30;;;;;;;0.50;0.30;;;14.60;99.90;;;;;;5158505;27;20431;-63
2024/04/06 04:59:58;;;;;;;0.47;0.20;;;14.60;99.90;;;;;;5158744;27;20542;-63
2024/04/06 05:02:24;;;;;;;0.43;0.20;;;14.60;99.90;;;;;;5140746;27;20542;-62
2024/04/06 05:04:52;;;;;;;0.57;0.30;;;14.60;99.90;;;;;;5138378;27;20873;-62
2024/04/06 05:07:22;;;;;;;0.60;0.30;;;14.60;99.90;;;;;;5138523;27;20880;-64
2024/04/06 05:09:49;;;;;;;0.30;0.20;;;14.60;99.90;;;;;;5159085;27;20451;-63
2024/04/06 05:12:15;;;;;;;0.30;0.20;;;14.60;99.90;;;;;;5158756;27;20451;-63
2024/04/06 05:14:44;;;;;;;0.57;0.20;;;14.60;99.90;;;;;;5159047;27;20447;-63
2024/04/06 05:17:11;;;;;;;0.73;0.33;;;14.60;99.90;;;;;;5158518;27;20549;-61
2024/04/06 05:19:38;;;;;;;0.40;0.20;;;14.70;99.90;;;;;;5158446;27;20483;-62
2024/04/06 05:22:04;;;;;;;0.50;0.30;;;14.70;99.90;;;;;;5158277;27;20443;-62
2024/04/06 05:24:32;;;;;;;0.53;0.30;;;14.70;99.90;;;;;;5158243;27;20476;-62
2024/04/06 05:26:58;;;;;;;0.70;0.30;;;14.80;99.90;;;;;;5158244;27;20447;-64
2024/04/06 05:29:25;;;;;;;0.50;0.30;;;14.80;99.90;;;;;;5157887;27;20443;-64
2024/04/06 05:31:54;;;;;;;0.60;0.40;;;14.90;99.90;;;;;;5158290;27;20880;-63
2024/04/06 05:34:21;;;;;;;0.53;0.40;;;14.90;99.90;;;;;;5158005;27;20449;-62
2024/04/06 05:36:47;;;;;;;0.50;0.30;;;15.00;99.90;;;;;;5157126;27;20975;-62
2024/04/06 05:39:14;;;;;;;0.60;0.37;;;15.00;99.90;;;;;;5155780;27;20473;-63
2024/04/06 05:41:41;;;;;;;0.80;0.30;;;15.00;99.90;;;;;;5154687;27;20491;-63
2024/04/06 05:44:08;;;;;;;0.60;0.30;;;15.00;99.90;;;;;;5156600;27;20461;-62
2024/04/06 05:46:34;;;;;;;0.40;0.30;;;15.10;99.90;;;;;;5155656;27;20446;-62
2024/04/06 05:49:02;;;;;;;0.40;0.20;;;15.10;99.90;;;;;;5156328;27;20789;-63
2024/04/06 05:51:29;;;;;;;0.77;0.30;;;15.10;99.90;;;;;;5157246;27;20772;-63
2024/04/06 05:53:55;;;;;;;0.40;0.20;;;15.20;99.90;;;;;;5157753;27;20481;-63
2024/04/06 05:56:21;;;;;;;0.70;0.30;;;15.20;99.90;;;;;;5157323;27;20732;-63
2024/04/06 05:58:50;;;;;;;0.47;0.30;;;15.20;99.90;;;;;;5156680;27;20478;-61
2024/04/06 06:01:16;;;;;;;1.30;0.50;;;15.20;99.90;;;;;;5149608;27;20456;-62
2024/04/06 06:03:43;;;;;;;1.07;0.70;;;15.20;99.90;;;;;;5156638;27;21183;-60
2024/04/06 06:06:10;;;;;;;0.60;0.30;;;15.30;99.90;;;;;;5157263;27;20446;-60
2024/04/06 06:08:38;;;;;;;0.40;0.30;;;15.30;99.90;;;;;;5157844;27;21062;-60
2024/04/06 06:11:04;;;;;;;5.60;0.40;;;15.30;99.90;;;;;;5157079;27;20447;-61
2024/04/06 06:13:32;;;;;;;0.60;0.30;;;15.30;99.90;;;;;;5157945;27;20450;-61
2024/04/06 06:16:01;;;;;;;1.13;0.30;;;15.40;99.90;;;;;;5157542;27;20443;-61
2024/04/06 06:18:28;;;;;;;0.73;0.30;;;15.40;99.90;;;;;;5157162;27;20470;-62
2024/04/06 06:20:54;;;;;;;0.60;0.30;;;15.50;99.90;;;;;;5149074;27;21798;-60
2024/04/06 06:23:21;;;;;;;1.10;0.50;;;15.50;99.90;;;;;;5149144;27;20443;-60
2024/04/06 06:25:47;;;;;;;0.83;0.30;;;15.70;99.90;;;;;;5153335;27;20899;-60
2024/04/06 06:28:14;;;;;;;0.73;0.30;;;15.80;99.90;;;;;;5156315;27;20455;-61
2024/04/06 06:30:41;;;;;;;0.90;0.40;;;15.90;99.90;;;;;;5156496;27;20455;-61
2024/04/06 06:33:09;;;;;;;0.80;0.40;;;15.90;99.90;;;;;;5157177;27;20442;-61
2024/04/06 06:35:36;;;;;;;0.70;0.30;;;16.00;99.90;;;;;;5157657;27;20511;-61
2024/04/06 06:38:03;;;;;;;0.40;0.23;;;16.10;99.90;;;;;;5156841;27;20784;-61
2024/04/06 06:40:29;;;;;;;0.77;0.20;;;16.10;99.90;;;;;;5156226;27;20482;-61
2024/04/06 06:42:55;;;;;;;0.50;0.30;;;16.20;99.90;;;;;;5156827;27;20514;-61
2024/04/06 06:45:22;;;;;;;0.53;0.40;;;16.20;99.90;;;;;;5157293;27;20742;-61
2024/04/06 06:47:48;;;;;;;0.70;0.50;;;16.30;99.90;;;;;;5157524;27;20450;-60
2024/04/06 06:50:16;;;;;;;0.87;0.47;;;16.30;99.90;;;;;;5152138;27;20444;-61
2024/04/06 06:52:42;;;;;;;2.70;0.50;;;16.30;99.90;;;;;;5138978;27;20540;-61
2024/04/06 06:55:10;;;;;;;1.10;0.50;;;16.30;99.90;;;;;;5130910;27;21054;-62
2024/04/06 06:57:36;;;;;;;0.60;0.40;;;16.30;99.90;;;;;;5144869;27;20440;-62
2024/04/06 07:00:03;;;;;;;0.90;0.57;;;16.30;99.90;;;;;;5160845;27;20463;-64
2024/04/06 07:02:33;;;;;;;6.73;0.60;;;16.30;99.90;;;;;;5159775;27;20870;-62
2024/04/06 07:04:59;;;;;;;0.73;0.50;;;16.30;99.90;;;;;;5150938;27;20436;-63
2024/04/06 07:07:27;;;;;;;1.00;0.47;;;16.20;99.90;;;;;;5157569;27;20828;-63
2024/04/06 07:09:54;;;;;;;0.80;0.47;;;16.20;99.90;;;;;;5149977;27;20451;-63
2024/04/06 07:12:20;;;;;;;0.90;0.50;;;16.20;99.90;;;;;;5159990;27;20495;-62
2024/04/06 07:14:47;;;;;;;0.90;0.50;;;16.20;99.90;;;;;;5155680;27;20744;-62
2024/04/06 07:17:13;;;;;;;1.13;0.50;;;16.20;99.90;;;;;;5142557;27;20518;-63
2024/04/06 07:19:40;;;;;;;1.30;0.60;;;16.30;99.90;;;;;;5159864;27;20479;-63
2024/04/06 07:22:07;;;;;;;1.03;0.53;;;16.30;99.90;;;;;;5158948;27;20455;-62
2024/04/06 07:24:34;;;;;;;0.67;0.43;;;16.40;99.90;;;;;;5154353;27;20496;-62
2024/04/06 07:27:01;;;;;;;2.07;0.60;;;16.50;99.90;;;;;;5153682;27;20487;-62
2024/04/06 07:29:27;;;;;;;1.33;0.60;;;16.60;99.90;;;;;;5145005;27;20519;-63
2024/04/06 07:31:54;;;;;;;0.90;0.50;;;16.70;99.90;;;;;;5153032;27;20450;-62
2024/04/06 07:34:20;;;;;;;3.23;0.70;;;16.80;99.90;;;;;;5143960;27;20442;-62
2024/04/06 07:36:47;;;;;;;0.80;0.50;;;16.80;99.90;;;;;;5155969;27;20570;-64
2024/04/06 07:39:13;;;;;;;1.90;0.43;;;16.90;99.90;;;;;;5159727;27;20474;-62
2024/04/06 07:41:41;;;;;;;1.00;0.50;;;17.10;99.90;;;;;;5157166;27;20925;-64
2024/04/06 07:44:07;;;;;;;0.60;0.40;;;17.20;99.90;;;;;;5150670;27;20463;-62
2024/04/06 07:46:34;;;;;;;0.60;0.40;;;17.30;99.90;;;;;;5139351;27;21019;-62
2024/04/06 07:49:01;;;;;;;4.00;0.43;;;17.40;99.90;;;;;;5157809;27;20519;-62
2024/04/06 07:51:28;;;;;;;2.60;0.50;;;17.60;99.90;;;;;;5155650;27;20435;-64
2024/04/06 07:53:54;;;;;;;0.70;0.40;;;17.70;99.90;;;;;;5141319;27;20496;-62
2024/04/06 07:56:21;;;;;;;0.80;0.40;;;17.80;99.90;;;;;;5157449;27;20868;-63
2024/04/06 07:58:48;;;;;;;1.00;0.40;;;17.80;99.90;;;;;;5158724;27;20892;-62
2024/04/06 08:01:15;;;;;;;1.40;0.50;;;18.00;99.90;;;;;;5150902;27;21011;-62
2024/04/06 08:03:41;;;;;;;0.50;0.40;;;18.10;99.90;;;;;;5150026;27;20455;-62
2024/04/06 08:06:08;;;;;;;0.93;0.60;;;18.10;99.90;;;;;;5149528;27;20530;-62
2024/04/06 08:08:34;;;;;;;4.90;0.50;;;18.10;99.90;;;;;;5146733;27;20446;-62
2024/04/06 08:11:01;;;;;;;0.80;0.40;;;18.30;99.90;;;;;;5154550;27;20821;-63
2024/04/06 08:13:27;;;;;;;0.83;0.40;;;18.30;99.90;;;;;;5148774;27;20434;-62
2024/04/06 08:15:56;;;;;;;1.03;0.50;;;18.50;99.90;;;;;;5149564;27;20512;-64
2024/04/06 08:18:22;;;;;;;0.73;0.40;;;18.60;99.90;;;;;;5145874;27;20477;-63
2024/04/06 08:20:49;;;;;;;2.70;0.90;;;18.70;99.90;;;;;;5153345;27;20471;-63
2024/04/06 08:23:17;;;;;;;1.20;0.53;;;18.70;99.90;;;;;;5150723;27;20873;-61
2024/04/06 08:25:44;;;;;;;0.60;0.40;;;18.80;99.90;;;;;;5149516;27;20519;-60
2024/04/06 08:28:11;;;;;;;0.80;0.40;;;19.00;99.90;;;;;;5152685;27;20535;-61
2024/04/06 08:30:39;;;;;;;1.03;0.30;;;19.20;99.90;;;;;;5158320;27;20217;-61
2024/04/06 08:33:07;;;;;;;0.60;0.30;;;19.40;99.90;;;;;;5157634;27;20919;-62
2024/04/06 08:35:36;;;;;;;2.80;0.30;;;19.50;99.90;;;;;;5157808;27;20546;-62
2024/04/06 08:38:02;;;;;;;0.50;0.30;;;19.60;99.90;;;;;;5157880;27;20457;-62
2024/04/06 08:40:29;;;;;;;0.50;0.30;;;19.70;99.90;;;;;;5157919;27;20478;-62
2024/04/06 08:42:58;;;;;;;0.40;0.20;;;19.90;99.90;;;;;;5158733;27;20500;-62
2024/04/06 08:45:28;;;;;;;0.57;0.20;;;20.00;99.90;;;;;;5156684;27;20463;-61
2024/04/06 08:47:55;;;;;;;3.50;0.90;;;20.10;99.90;;;;;;5152504;27;20451;-62
2024/04/06 08:50:23;;;;;;;0.63;0.40;;;20.10;99.90;;;;;;5146353;27;20458;-62
2024/04/06 08:52:49;;;;;;;0.40;0.23;;;20.20;99.90;;;;;;5156170;27;20447;-62
2024/04/06 08:55:16;;;;;;;0.87;0.30;;;20.20;99.90;;;;;;5156735;27;20474;-63
2024/04/06 08:57:43;;;;;;;0.60;0.30;;;20.30;99.90;;;;;;5156785;27;20439;-61
2024/04/06 09:00:11;;;;;;;0.80;0.30;;;20.30;99.90;;;;;;5155698;27;20483;-62
2024/04/06 09:02:38;;;;;;;0.40;0.20;;;20.50;99.90;;;;;;5157389;27;20883;-61
2024/04/06 09:05:07;;;;;;;0.50;0.30;;;20.50;99.90;;;;;;5157091;27;20868;-61
2024/04/06 09:07:34;;;;;;;0.70;0.30;;;20.70;99.90;;;;;;5157631;27;20581;-61
2024/04/06 09:10:01;;;;;;;1.17;0.20;;;20.80;99.90;;;;;;5149120;27;20451;-61
2024/04/06 09:12:28;;;;;;;1.17;0.20;;;21.00;99.90;;;;;;5157316;27;20439;-61
2024/04/06 09:14:55;;;;;;;0.70;0.30;;;21.10;99.90;;;;;;5156660;27;20553;-61
2024/04/06 09:17:21;;;;;;;0.40;0.20;;;21.20;99.90;;;;;;5156938;27;20483;-61
2024/04/06 09:19:48;;;;;;;0.50;0.27;;;21.30;99.90;;;;;;5155664;27;20478;-63
2024/04/06 09:22:15;;;;;;;0.87;0.30;;;21.40;99.90;;;;;;5158180;27;20454;-62
2024/04/06 09:24:43;;;;;;;0.57;0.30;;;21.50;98.60;;;;;;5158355;27;20427;-63
2024/04/06 09:27:11;;;;;;;0.40;0.20;;;21.50;98.50;;;;;;5152396;27;20499;-62
2024/04/06 09:29:47;;;;;;;0.70;0.30;;;21.60;96.70;;;;;;5148063;27;20435;-62
2024/04/06 09:32:16;;;;;;;0.60;0.37;;;21.70;98.10;;;;;;5149023;27;20982;-62
2024/04/06 09:34:50;;;;;;;0.40;0.20;;;21.70;98.80;;;;;;5144947;27;20462;-62
2024/04/06 09:37:19;;;;;;;0.60;0.30;;;21.80;98.20;;;;;;5140594;27;20517;-62
2024/04/06 09:39:49;;;;;;;0.67;0.30;;;21.90;1.00;;;;;;5138018;27;20520;-61
2024/04/06 09:42:16;;;;;;;0.57;0.30;;;22.00;1.00;;;;;;5137550;27;20473;-62
2024/04/06 09:44:44;;;;;;;0.60;0.20;;;22.00;1.00;;;;;;5157715;27;20453;-62
2024/04/06 09:47:10;;;;;;;0.40;0.20;;;22.10;1.00;;;;;;5158085;27;20450;-62
2024/04/06 09:49:39;;;;;;;0.70;0.20;;;22.20;1.00;;;;;;5158017;27;20786;-62
2024/04/06 09:52:05;;;;;;;1.07;0.20;;;22.20;1.00;;;;;;5157282;27;20454;-62
2024/04/06 09:54:33;;;;;;;1.13;0.30;;;22.30;1.00;;;;;;5156286;27;20439;-62
2024/04/06 09:57:02;;;;;;;0.60;0.30;;;22.50;1.00;;;;;;5155893;27;20727;-62
2024/04/06 09:59:30;;;;;;;0.50;0.20;;;22.60;1.00;;;;;;5155074;27;20475;-62
2024/04/06 10:01:56;;;;;;;0.40;0.20;;;22.80;1.00;;;;;;5155771;27;20489;-61
2024/04/06 10:04:25;;;;;;;1.13;0.20;;;22.90;1.00;;;;;;5147393;27;20469;-60
2024/04/06 10:06:52;;;;;;;0.50;0.30;;;23.00;1.00;;;;;;5156272;27;20446;-62
2024/04/06 10:09:19;;;;;;;0.60;0.30;;;23.20;1.00;;;;;;5156816;27;20462;-62
2024/04/06 10:11:45;;;;;;;0.67;0.20;;;23.40;35.10;;;;;;5148317;27;20851;-61
2024/04/06 10:14:14;;;;;;;0.73;0.30;;;23.50;1.00;;;;;;5155563;27;20458;-63
2024/04/06 10:16:41;;;;;;;0.70;0.20;;;23.70;1.00;;;;;;5156286;27;20447;-63
2024/04/06 10:19:08;;;;;;;0.47;0.20;;;23.90;1.00;;;;;;5156079;27;20454;-65
2024/04/06 10:21:36;;;;;;;0.50;0.30;;;24.00;43.20;;;;;;5152525;27;20793;-63
2024/04/06 10:24:12;;;;;;;0.40;0.20;;;24.20;54.60;;;;;;5135719;27;21003;-64
2024/04/06 10:26:46;;;;;;;0.50;0.30;;;24.40;54.20;;;;;;5150594;27;20447;-64
2024/04/06 10:29:15;;;;;;;0.43;0.20;;;24.60;51.70;;;;;;5154745;27;20454;-63
2024/04/06 10:31:42;;;;;;;0.40;0.20;;;24.80;50.10;;;;;;5147913;27;20540;-63
2024/04/06 10:34:09;;;;;;;0.37;0.20;;;24.90;49.40;;;;;;5156118;27;20573;-64
2024/04/06 10:36:35;;;;;;;0.50;0.20;;;25.10;49.60;;;;;;5147138;27;20444;-63
2024/04/06 10:39:04;;;;;;;0.40;0.27;;;25.30;49.30;;;;;;5147445;27;20466;-64
2024/04/06 10:41:30;;;;;;;0.50;0.20;;;25.40;46.90;;;;;;5134618;27;20494;-64
2024/04/06 10:43:58;;;;;;;0.30;0.20;;;25.50;48.90;;;;;;5149521;27;20455;-64
2024/04/06 10:46:25;;;;;;;0.50;0.30;;;25.50;45.70;;;;;;5152670;27;20503;-63
2024/04/06 10:48:53;;;;;;;0.40;0.20;;;25.50;47.70;;;;;;5151249;27;20458;-64
2024/04/06 10:51:19;;;;;;;0.70;0.30;;;25.60;46.00;;;;;;5150387;27;20467;-64
2024/04/06 10:53:47;;;;;;;0.77;0.20;;;25.70;45.40;;;;;;5149766;27;20455;-63
2024/04/06 10:56:13;;;;;;;0.40;0.20;;;25.80;45.10;;;;;;5153984;27;20458;-63
2024/04/06 10:58:40;;;;;;;0.40;0.20;;;26.30;44.20;;;;;;5152502;27;20573;-63
2024/04/06 11:01:15;;;;;;;0.47;0.20;;;26.40;43.30;;;;;;5155870;27;20513;-62
2024/04/06 11:03:43;;;;;;;0.60;0.30;;;26.30;43.50;;;;;;5157374;27;20434;-63
2024/04/06 11:06:10;;;;;;;0.47;0.20;;;26.40;42.60;;;;;;5157928;27;20439;-62
2024/04/06 11:08:37;;;;;;;0.40;0.20;;;26.30;43.50;;;;;;5157758;27;20853;-63
2024/04/06 11:11:04;;;;;;;0.40;0.30;;;26.10;43.70;;;;;;5157322;27;20453;-63
2024/04/06 11:13:31;;;;;;;0.40;0.20;;;26.20;42.90;;;;;;5157255;27;20489;-62
2024/04/06 11:15:57;;;;;;;0.47;0.30;;;26.50;44.20;;;;;;5151474;27;20463;-62
2024/04/06 11:18:24;;;;;;;0.50;0.30;;;26.70;42.40;;;;;;5151158;27;20491;-62
2024/04/06 11:20:52;;;;;;;0.50;0.30;;;26.70;43.00;;;;;;5145005;27;20535;-62
2024/04/06 11:23:20;;;;;;;0.50;0.30;;;26.90;43.00;;;;;;5157548;27;20491;-62
2024/04/06 11:25:47;;;;;;;0.60;0.20;;;26.80;40.70;;;;;;5150837;27;20455;-63
2024/04/06 11:28:14;;;;;;;1.43;0.10;;;26.60;40.90;;;;;;5136547;27;20463;-64
2024/04/06 11:30:41;;;;;;;0.37;0.20;;;26.90;41.50;;;;;;5148811;27;20848;-63
2024/04/06 11:33:09;;;;;;;0.40;0.20;;;26.90;39.70;;;;;;5155647;27;20800;-63
2024/04/06 11:35:35;;;;;;;0.57;0.20;;;27.10;40.50;;;;;;5156424;27;20511;-63
2024/04/06 11:38:05;;;;;;;0.80;0.20;;;27.10;40.30;;;;;;5149806;27;20462;-63
2024/04/06 11:40:31;;;;;;;0.50;0.20;;;27.10;38.80;;;;;;5145915;27;20483;-63
2024/04/06 11:42:58;;;;;;;1.00;0.27;;;27.20;39.80;;;;;;5137966;27;20554;-61
2024/04/06 11:45:24;;;;;;;0.50;0.20;;;27.40;39.80;;;;;;5148313;27;20458;-63
2024/04/06 11:47:54;;;;;;;0.50;0.27;;;27.40;37.90;;;;;;5148073;27;20916;-64
2024/04/06 11:50:20;;;;;;;3.03;0.30;;;27.30;37.80;;;;;;5150556;27;20861;-63
2024/04/06 11:52:47;;;;;;;0.40;0.20;;;27.40;38.20;;;;;;5156582;27;20530;-64
2024/04/06 11:55:15;;;;;;;0.50;0.20;;;27.70;38.10;;;;;;5155173;27;20526;-64
2024/04/06 11:57:43;;;;;;;0.40;0.30;;;28.00;36.50;;;;;;5157450;27;20553;-64
2024/04/06 12:00:11;;;;;;;0.60;0.30;;;28.00;36.60;;;;;;5148865;27;20478;-65
2024/04/06 12:02:38;;;;;;;1.50;0.20;;;28.00;36.60;;;;;;5153257;27;20905;-65
2024/04/06 12:05:04;;;;;;;0.30;0.20;;;27.90;37.10;;;;;;5156840;27;20439;-65
2024/04/06 12:07:32;;;;;;;0.40;0.20;;;27.80;36.70;;;;;;5158682;27;20508;-65
2024/04/06 12:09:58;;;;;;;0.40;0.20;;;27.80;35.90;;;;;;5155134;27;20459;-66
2024/04/06 12:12:26;;;;;;;0.40;0.20;;;27.70;36.20;;;;;;5158315;27;20538;-64
2024/04/06 12:14:52;;;;;;;0.70;0.40;;;27.70;35.80;;;;;;5150123;27;20463;-64
2024/04/06 12:17:26;;;;;;;0.40;0.30;;;27.70;35.10;;;;;;5152570;27;20450;-64
2024/04/06 12:19:52;;;;;;;0.40;0.20;;;27.80;35.80;;;;;;5150368;27;20450;-63
2024/04/06 12:22:20;;;;;;;0.70;0.30;;;27.70;34.70;;;;;;5156733;27;20447;-65
2024/04/06 12:24:46;;;;;;;0.50;0.20;;;27.70;35.10;;;;;;5158273;27;20486;-63
2024/04/06 12:27:17;;;;;;;0.30;0.20;;;27.60;34.80;;;;;;5157546;27;20797;-64
2024/04/06 12:29:44;;;;;;;0.50;0.20;;;27.60;34.00;;;;;;5157607;27;20458;-64
2024/04/06 12:32:12;;;;;;;0.40;0.20;;;27.60;34.60;;;;;;5154493;27;20491;-63
2024/04/06 12:34:38;;;;;;;0.30;0.20;;;27.70;34.80;;;;;;5152468;27;20755;-63
2024/04/06 12:37:09;;;;;;;0.40;0.20;;;27.80;34.40;;;;;;5142727;27;20443;-63
2024/04/06 12:39:36;;;;;;;3.13;0.33;;;28.00;34.80;;;;;;5151343;27;20509;-61
2024/04/06 12:42:05;;;;;;;0.73;0.20;;;28.20;34.80;;;;;;5147976;27;20485;-62
2024/04/06 12:44:32;;;;;;;0.83;0.30;;;28.00;33.80;;;;;;5153405;27;20451;-60
2024/04/06 12:47:01;;;;;;;0.80;0.30;;;28.20;34.90;;;;;;5150982;27;20673;-62